This is the latest recevied weather packets stored in our database for station/object KE8ZLU. If no packets are shown the sender has not sent any weather packets the latest 10 day(s).
| Time | Temp. | Humidity | Pressure | Rain* | Wind** | Luminosity | Snow |
|---|---|---|---|---|---|---|---|
| 1778174400 | 11.11° C | 48% | 1014.3 hPa | 0 mm | - | 843 W/m² | - |
| 1778174095 | 11.11° C | 48% | 1014.5 hPa | 0 mm | - | 251 W/m² | - |
| 1778173793 | 10.56° C | 47% | 1014.4 hPa | 0 mm | - | 208 W/m² | - |
| 1778173490 | 10.56° C | 49% | 1014.6 hPa | 0 mm | - | 158 W/m² | - |
| 1778173186 | 10° C | 49% | 1014.6 hPa | 0 mm | - | 234 W/m² | - |
| 1778172882 | 10° C | 48% | 1014.6 hPa | 0 mm | - | 295 W/m² | - |
| 1778172578 | 9.44° C | 49% | 1014.8 hPa | 0 mm | - | 256 W/m² | - |
| 1778172275 | 10.56° C | 47% | 1014.8 hPa | 0 mm | - | 263 W/m² | - |
| 1778171972 | 11.11° C | 49% | 1014.6 hPa | 0 mm | - | 180 W/m² | - |
| 1778171670 | 10.56° C | 47% | 1014.8 hPa | 0 mm | - | 201 W/m² | - |
| 1778171366 | 10° C | 48% | 1014.9 hPa | 0 mm | - | 134 W/m² | - |
| 1778171061 | 10° C | 49% | 1014.9 hPa | 0 mm | - | 496 W/m² | - |
| 1778170760 | 9.44° C | 51% | 1014.9 hPa | 0 mm | - | 557 W/m² | - |
| 1778170455 | 10° C | 47% | 1015 hPa | 0 mm | - | 756 W/m² | - |
| 1778170152 | 9.44° C | 51% | 1015.1 hPa | 0 mm | - | 775 W/m² | - |
| 1778169848 | 8.89° C | 53% | 1015 hPa | 0 mm | - | 803 W/m² | - |
| 1778169544 | 9.44° C | 51% | 1015.1 hPa | 0 mm | - | 209 W/m² | - |
| 1778169240 | 8.89° C | 53% | 1015.1 hPa | 0 mm | - | 329 W/m² | - |
| 1778168937 | 8.89° C | 52% | 1014.9 hPa | 0 mm | - | 807 W/m² | - |
| 1778168634 | 9.44° C | 50% | 1015 hPa | 0 mm | - | 726 W/m² | - |
| 1778168388 | 8.33° C | 53% | 1015 hPa | 0 mm | - | 678 W/m² | - |
| 1778168332 | 8.33° C | 53% | 1015 hPa | 0 mm | - | 678 W/m² | - |
| 1778168027 | 8.89° C | 52% | 1014.8 hPa | 0 mm | - | 195 W/m² | - |
| 1778167912 | 8.33° C | 55% | 1015.1 hPa | 0 mm | - | 730 W/m² | - |
| 1778167724 | 8.33° C | 55% | 1015.1 hPa | 0 mm | - | 730 W/m² | - |
* Rain latest hour (hover to see other rain measurements)
** Current wind speed in m/s (hover to see current wind gust speed)